sensor_id;sensor_type;location;lat;lon;timestamp;P1;durP1;ratioP1;P2;durP2;ratioP2
7997;SDS011;4044;49.814;7.828;2022-12-18T00:01:25;42.47;;;22.30;;
7997;SDS011;4044;49.814;7.828;2022-12-18T00:03:53;43.60;;;23.43;;
7997;SDS011;4044;49.814;7.828;2022-12-18T00:06:20;42.50;;;23.63;;
7997;SDS011;4044;49.814;7.828;2022-12-18T00:08:47;44.80;;;23.33;;
7997;SDS011;4044;49.814;7.828;2022-12-18T00:11:17;42.33;;;22.00;;
7997;SDS011;4044;49.814;7.828;2022-12-18T00:13:45;45.17;;;23.10;;
7997;SDS011;4044;49.814;7.828;2022-12-18T00:16:12;44.07;;;23.27;;
7997;SDS011;4044;49.814;7.828;2022-12-18T00:18:39;43.90;;;24.17;;
7997;SDS011;4044;49.814;7.828;2022-12-18T00:21:06;42.27;;;23.00;;
7997;SDS011;4044;49.814;7.828;2022-12-18T00:23:34;40.97;;;22.80;;
7997;SDS011;4044;49.814;7.828;2022-12-18T00:26:11;42.43;;;21.87;;
7997;SDS011;4044;49.814;7.828;2022-12-18T00:28:58;38.83;;;21.60;;
7997;SDS011;4044;49.814;7.828;2022-12-18T00:31:25;42.57;;;23.10;;
7997;SDS011;4044;49.814;7.828;2022-12-18T00:33:51;43.13;;;23.80;;
7997;SDS011;4044;49.814;7.828;2022-12-18T00:36:19;41.77;;;22.37;;
7997;SDS011;4044;49.814;7.828;2022-12-18T00:38:46;45.53;;;23.67;;
7997;SDS011;4044;49.814;7.828;2022-12-18T00:41:14;40.47;;;21.80;;
7997;SDS011;4044;49.814;7.828;2022-12-18T00:44:03;44.33;;;23.00;;
7997;SDS011;4044;49.814;7.828;2022-12-18T00:46:29;46.40;;;24.37;;
7997;SDS011;4044;49.814;7.828;2022-12-18T00:48:55;42.50;;;23.03;;
7997;SDS011;4044;49.814;7.828;2022-12-18T00:51:21;45.10;;;23.87;;
7997;SDS011;4044;49.814;7.828;2022-12-18T00:53:46;45.00;;;24.33;;
7997;SDS011;4044;49.814;7.828;2022-12-18T00:56:12;41.97;;;23.10;;
7997;SDS011;4044;49.814;7.828;2022-12-18T00:58:37;40.70;;;22.67;;
7997;SDS011;4044;49.814;7.828;2022-12-18T01:01:06;41.17;;;22.73;;
7997;SDS011;4044;49.814;7.828;2022-12-18T01:03:32;41.37;;;23.43;;
7997;SDS011;4044;49.814;7.828;2022-12-18T01:05:57;43.63;;;23.53;;
7997;SDS011;4044;49.814;7.828;2022-12-18T01:08:23;41.63;;;24.00;;
7997;SDS011;4044;49.814;7.828;2022-12-18T01:10:48;49.83;;;24.83;;
7997;SDS011;4044;49.814;7.828;2022-12-18T01:13:14;42.73;;;23.40;;
7997;SDS011;4044;49.814;7.828;2022-12-18T01:15:40;43.87;;;23.43;;
7997;SDS011;4044;49.814;7.828;2022-12-18T01:18:06;47.30;;;24.27;;
7997;SDS011;4044;49.814;7.828;2022-12-18T01:20:32;41.90;;;23.67;;
7997;SDS011;4044;49.814;7.828;2022-12-18T01:22:57;44.80;;;24.50;;
7997;SDS011;4044;49.814;7.828;2022-12-18T01:25:23;41.63;;;22.80;;
7997;SDS011;4044;49.814;7.828;2022-12-18T01:27:48;43.73;;;24.20;;
7997;SDS011;4044;49.814;7.828;2022-12-18T01:30:14;46.97;;;24.47;;
7997;SDS011;4044;49.814;7.828;2022-12-18T01:32:40;45.73;;;24.47;;
7997;SDS011;4044;49.814;7.828;2022-12-18T01:35:05;47.47;;;26.03;;
7997;SDS011;4044;49.814;7.828;2022-12-18T01:37:31;47.47;;;24.43;;
7997;SDS011;4044;49.814;7.828;2022-12-18T01:39:57;57.00;;;26.97;;
7997;SDS011;4044;49.814;7.828;2022-12-18T01:42:22;45.67;;;25.27;;
7997;SDS011;4044;49.814;7.828;2022-12-18T01:47:49;47.73;;;25.50;;
7997;SDS011;4044;49.814;7.828;2022-12-18T01:50:36;48.47;;;25.17;;
7997;SDS011;4044;49.814;7.828;2022-12-18T01:53:06;49.03;;;27.10;;
7997;SDS011;4044;49.814;7.828;2022-12-18T01:55:37;52.50;;;26.37;;
7997;SDS011;4044;49.814;7.828;2022-12-18T01:58:29;50.47;;;25.63;;
7997;SDS011;4044;49.814;7.828;2022-12-18T02:01:06;53.10;;;25.67;;
7997;SDS011;4044;49.814;7.828;2022-12-18T02:03:32;50.37;;;25.07;;
7997;SDS011;4044;49.814;7.828;2022-12-18T02:06:10;48.30;;;25.10;;
7997;SDS011;4044;49.814;7.828;2022-12-18T02:11:11;53.57;;;26.43;;
7997;SDS011;4044;49.814;7.828;2022-12-18T02:16:46;50.90;;;26.93;;
7997;SDS011;4044;49.814;7.828;2022-12-18T02:27:18;46.40;;;25.73;;
7997;SDS011;4044;49.814;7.828;2022-12-18T02:29:46;45.70;;;25.47;;
7997;SDS011;4044;49.814;7.828;2022-12-18T02:32:16;45.73;;;24.60;;
7997;SDS011;4044;49.814;7.828;2022-12-18T02:34:46;43.13;;;24.97;;
7997;SDS011;4044;49.814;7.828;2022-12-18T02:37:16;44.27;;;24.43;;
7997;SDS011;4044;49.814;7.828;2022-12-18T02:39:44;43.70;;;24.27;;
7997;SDS011;4044;49.814;7.828;2022-12-18T02:42:13;42.23;;;24.03;;
7997;SDS011;4044;49.814;7.828;2022-12-18T02:44:46;45.30;;;24.87;;
7997;SDS011;4044;49.814;7.828;2022-12-18T02:47:14;43.43;;;24.80;;
7997;SDS011;4044;49.814;7.828;2022-12-18T02:57:42;43.27;;;25.27;;
7997;SDS011;4044;49.814;7.828;2022-12-18T03:00:19;44.17;;;24.83;;
7997;SDS011;4044;49.814;7.828;2022-12-18T03:07:46;40.97;;;24.23;;
7997;SDS011;4044;49.814;7.828;2022-12-18T03:10:31;37.67;;;22.57;;
7997;SDS011;4044;49.814;7.828;2022-12-18T03:13:01;37.60;;;23.53;;
7997;SDS011;4044;49.814;7.828;2022-12-18T03:15:34;43.20;;;25.23;;
7997;SDS011;4044;49.814;7.828;2022-12-18T03:18:04;41.37;;;24.40;;
7997;SDS011;4044;49.814;7.828;2022-12-18T03:20:41;39.57;;;23.83;;
7997;SDS011;4044;49.814;7.828;2022-12-18T03:23:10;42.63;;;25.13;;
7997;SDS011;4044;49.814;7.828;2022-12-18T03:25:40;41.07;;;24.50;;
7997;SDS011;4044;49.814;7.828;2022-12-18T03:28:08;39.53;;;24.43;;
7997;SDS011;4044;49.814;7.828;2022-12-18T03:30:37;40.33;;;23.97;;
7997;SDS011;4044;49.814;7.828;2022-12-18T03:33:07;42.90;;;24.17;;
7997;SDS011;4044;49.814;7.828;2022-12-18T03:35:41;39.70;;;23.43;;
7997;SDS011;4044;49.814;7.828;2022-12-18T03:38:08;40.03;;;23.60;;
7997;SDS011;4044;49.814;7.828;2022-12-18T03:43:51;39.33;;;23.17;;
7997;SDS011;4044;49.814;7.828;2022-12-18T03:46:30;41.37;;;24.47;;
7997;SDS011;4044;49.814;7.828;2022-12-18T03:49:09;41.60;;;24.43;;
7997;SDS011;4044;49.814;7.828;2022-12-18T03:51:44;42.37;;;24.50;;
7997;SDS011;4044;49.814;7.828;2022-12-18T03:54:19;41.73;;;24.17;;
7997;SDS011;4044;49.814;7.828;2022-12-18T03:56:49;39.37;;;23.67;;
7997;SDS011;4044;49.814;7.828;2022-12-18T03:59:24;40.90;;;24.33;;
7997;SDS011;4044;49.814;7.828;2022-12-18T04:01:51;38.87;;;24.23;;
7997;SDS011;4044;49.814;7.828;2022-12-18T04:04:19;41.13;;;25.10;;
7997;SDS011;4044;49.814;7.828;2022-12-18T04:06:46;41.27;;;24.63;;
7997;SDS011;4044;49.814;7.828;2022-12-18T04:09:14;42.03;;;24.33;;
7997;SDS011;4044;49.814;7.828;2022-12-18T04:11:41;40.97;;;24.73;;
7997;SDS011;4044;49.814;7.828;2022-12-18T04:14:08;42.60;;;24.37;;
7997;SDS011;4044;49.814;7.828;2022-12-18T04:16:34;40.87;;;23.87;;
7997;SDS011;4044;49.814;7.828;2022-12-18T04:19:00;40.53;;;24.70;;
7997;SDS011;4044;49.814;7.828;2022-12-18T04:21:26;40.53;;;24.63;;
7997;SDS011;4044;49.814;7.828;2022-12-18T04:23:51;39.63;;;23.80;;
7997;SDS011;4044;49.814;7.828;2022-12-18T04:26:17;40.80;;;23.80;;
7997;SDS011;4044;49.814;7.828;2022-12-18T04:28:42;39.40;;;23.90;;
7997;SDS011;4044;49.814;7.828;2022-12-18T04:31:08;42.80;;;24.67;;
7997;SDS011;4044;49.814;7.828;2022-12-18T04:33:33;40.37;;;24.63;;
7997;SDS011;4044;49.814;7.828;2022-12-18T04:35:59;42.43;;;25.93;;
7997;SDS011;4044;49.814;7.828;2022-12-18T04:38:24;41.13;;;25.47;;
7997;SDS011;4044;49.814;7.828;2022-12-18T04:40:50;41.73;;;25.07;;
7997;SDS011;4044;49.814;7.828;2022-12-18T04:43:15;41.80;;;25.33;;
7997;SDS011;4044;49.814;7.828;2022-12-18T04:45:41;44.60;;;25.17;;
7997;SDS011;4044;49.814;7.828;2022-12-18T04:48:07;40.33;;;24.10;;
7997;SDS011;4044;49.814;7.828;2022-12-18T04:50:32;43.27;;;25.60;;
7997;SDS011;4044;49.814;7.828;2022-12-18T04:52:58;43.23;;;26.17;;
7997;SDS011;4044;49.814;7.828;2022-12-18T04:55:23;45.60;;;24.97;;
7997;SDS011;4044;49.814;7.828;2022-12-18T04:57:49;42.87;;;25.23;;
7997;SDS011;4044;49.814;7.828;2022-12-18T05:00:14;45.93;;;25.53;;
7997;SDS011;4044;49.814;7.828;2022-12-18T05:02:40;42.67;;;25.73;;
7997;SDS011;4044;49.814;7.828;2022-12-18T05:05:06;39.83;;;24.00;;
7997;SDS011;4044;49.814;7.828;2022-12-18T05:07:32;42.53;;;25.70;;
7997;SDS011;4044;49.814;7.828;2022-12-18T05:09:57;47.23;;;25.83;;
7997;SDS011;4044;49.814;7.828;2022-12-18T05:12:23;40.10;;;23.90;;
7997;SDS011;4044;49.814;7.828;2022-12-18T05:14:48;41.00;;;24.20;;
7997;SDS011;4044;49.814;7.828;2022-12-18T05:17:14;42.83;;;24.63;;
7997;SDS011;4044;49.814;7.828;2022-12-18T05:19:39;41.33;;;25.43;;
7997;SDS011;4044;49.814;7.828;2022-12-18T05:22:05;39.80;;;24.43;;
7997;SDS011;4044;49.814;7.828;2022-12-18T05:24:31;41.17;;;25.30;;
7997;SDS011;4044;49.814;7.828;2022-12-18T05:26:57;41.57;;;24.57;;
7997;SDS011;4044;49.814;7.828;2022-12-18T05:29:22;40.13;;;25.43;;
7997;SDS011;4044;49.814;7.828;2022-12-18T05:31:48;41.60;;;24.30;;
7997;SDS011;4044;49.814;7.828;2022-12-18T05:34:13;40.60;;;24.00;;
7997;SDS011;4044;49.814;7.828;2022-12-18T05:36:39;38.33;;;23.10;;
7997;SDS011;4044;49.814;7.828;2022-12-18T05:39:04;39.23;;;24.03;;
7997;SDS011;4044;49.814;7.828;2022-12-18T05:41:31;40.23;;;24.83;;
7997;SDS011;4044;49.814;7.828;2022-12-18T05:43:56;40.00;;;23.60;;
7997;SDS011;4044;49.814;7.828;2022-12-18T05:46:22;39.40;;;23.97;;
7997;SDS011;4044;49.814;7.828;2022-12-18T05:48:49;40.43;;;24.63;;
7997;SDS011;4044;49.814;7.828;2022-12-18T05:51:16;37.97;;;23.47;;
7997;SDS011;4044;49.814;7.828;2022-12-18T05:53:43;39.93;;;23.67;;
7997;SDS011;4044;49.814;7.828;2022-12-18T05:56:11;41.73;;;25.13;;
7997;SDS011;4044;49.814;7.828;2022-12-18T05:58:41;38.40;;;23.20;;
7997;SDS011;4044;49.814;7.828;2022-12-18T06:01:12;40.07;;;24.23;;
7997;SDS011;4044;49.814;7.828;2022-12-18T06:03:45;35.63;;;23.23;;
7997;SDS011;4044;49.814;7.828;2022-12-18T06:06:15;41.23;;;24.40;;
7997;SDS011;4044;49.814;7.828;2022-12-18T06:08:42;40.07;;;24.67;;
7997;SDS011;4044;49.814;7.828;2022-12-18T06:11:08;40.90;;;24.27;;
7997;SDS011;4044;49.814;7.828;2022-12-18T06:13:33;39.63;;;23.40;;
7997;SDS011;4044;49.814;7.828;2022-12-18T06:16:01;37.23;;;23.53;;
7997;SDS011;4044;49.814;7.828;2022-12-18T06:18:28;40.73;;;23.93;;
7997;SDS011;4044;49.814;7.828;2022-12-18T06:20:57;38.77;;;23.50;;
7997;SDS011;4044;49.814;7.828;2022-12-18T06:23:23;41.13;;;24.93;;
7997;SDS011;4044;49.814;7.828;2022-12-18T06:25:49;40.27;;;24.63;;
7997;SDS011;4044;49.814;7.828;2022-12-18T06:28:15;38.20;;;23.43;;
7997;SDS011;4044;49.814;7.828;2022-12-18T06:30:43;38.97;;;23.90;;
7997;SDS011;4044;49.814;7.828;2022-12-18T06:33:09;39.27;;;24.30;;
7997;SDS011;4044;49.814;7.828;2022-12-18T06:35:34;39.07;;;24.73;;
7997;SDS011;4044;49.814;7.828;2022-12-18T06:38:01;38.50;;;23.73;;
7997;SDS011;4044;49.814;7.828;2022-12-18T06:40:27;40.33;;;24.53;;
7997;SDS011;4044;49.814;7.828;2022-12-18T06:42:52;40.27;;;24.10;;
7997;SDS011;4044;49.814;7.828;2022-12-18T06:45:18;36.37;;;23.87;;
7997;SDS011;4044;49.814;7.828;2022-12-18T06:47:43;38.33;;;23.63;;
7997;SDS011;4044;49.814;7.828;2022-12-18T06:50:09;39.37;;;23.87;;
7997;SDS011;4044;49.814;7.828;2022-12-18T06:52:35;37.90;;;24.40;;
7997;SDS011;4044;49.814;7.828;2022-12-18T06:55:01;40.67;;;25.50;;
7997;SDS011;4044;49.814;7.828;2022-12-18T06:57:27;39.67;;;24.77;;
7997;SDS011;4044;49.814;7.828;2022-12-18T06:59:53;41.40;;;24.50;;
7997;SDS011;4044;49.814;7.828;2022-12-18T07:02:18;38.33;;;24.03;;
7997;SDS011;4044;49.814;7.828;2022-12-18T07:04:44;37.60;;;24.07;;
7997;SDS011;4044;49.814;7.828;2022-12-18T07:07:09;40.87;;;24.10;;
7997;SDS011;4044;49.814;7.828;2022-12-18T07:09:35;38.17;;;25.20;;
7997;SDS011;4044;49.814;7.828;2022-12-18T07:12:00;45.87;;;25.07;;
7997;SDS011;4044;49.814;7.828;2022-12-18T07:14:26;38.83;;;24.60;;
7997;SDS011;4044;49.814;7.828;2022-12-18T07:16:51;40.43;;;24.80;;
7997;SDS011;4044;49.814;7.828;2022-12-18T07:19:17;38.10;;;24.33;;
7997;SDS011;4044;49.814;7.828;2022-12-18T07:21:43;39.27;;;23.93;;
7997;SDS011;4044;49.814;7.828;2022-12-18T07:24:08;38.37;;;24.57;;
7997;SDS011;4044;49.814;7.828;2022-12-18T07:26:34;42.37;;;26.70;;
7997;SDS011;4044;49.814;7.828;2022-12-18T07:28:59;37.53;;;24.57;;
7997;SDS011;4044;49.814;7.828;2022-12-18T07:31:25;41.10;;;25.90;;
7997;SDS011;4044;49.814;7.828;2022-12-18T07:33:51;39.83;;;24.73;;
7997;SDS011;4044;49.814;7.828;2022-12-18T07:36:17;42.97;;;25.60;;
7997;SDS011;4044;49.814;7.828;2022-12-18T07:38:44;40.43;;;24.50;;
7997;SDS011;4044;49.814;7.828;2022-12-18T07:41:12;41.10;;;26.30;;
7997;SDS011;4044;49.814;7.828;2022-12-18T07:43:38;38.37;;;23.77;;
7997;SDS011;4044;49.814;7.828;2022-12-18T07:46:05;40.10;;;25.17;;
7997;SDS011;4044;49.814;7.828;2022-12-18T07:48:32;38.87;;;24.53;;
7997;SDS011;4044;49.814;7.828;2022-12-18T07:50:59;39.90;;;24.97;;
7997;SDS011;4044;49.814;7.828;2022-12-18T07:53:29;41.53;;;24.40;;
7997;SDS011;4044;49.814;7.828;2022-12-18T07:56:02;37.40;;;25.03;;
7997;SDS011;4044;49.814;7.828;2022-12-18T07:58:30;42.30;;;25.10;;
7997;SDS011;4044;49.814;7.828;2022-12-18T08:01:05;44.17;;;24.83;;
7997;SDS011;4044;49.814;7.828;2022-12-18T08:03:32;42.30;;;25.37;;
7997;SDS011;4044;49.814;7.828;2022-12-18T08:05:59;39.90;;;24.37;;
7997;SDS011;4044;49.814;7.828;2022-12-18T08:08:25;40.20;;;24.70;;
7997;SDS011;4044;49.814;7.828;2022-12-18T08:10:51;38.87;;;24.20;;
7997;SDS011;4044;49.814;7.828;2022-12-18T08:13:16;40.50;;;25.10;;
7997;SDS011;4044;49.814;7.828;2022-12-18T08:15:42;37.63;;;23.60;;
7997;SDS011;4044;49.814;7.828;2022-12-18T08:18:07;41.17;;;25.77;;
7997;SDS011;4044;49.814;7.828;2022-12-18T08:20:33;41.70;;;25.83;;
7997;SDS011;4044;49.814;7.828;2022-12-18T08:22:58;39.73;;;25.10;;
7997;SDS011;4044;49.814;7.828;2022-12-18T08:25:24;42.73;;;26.13;;
7997;SDS011;4044;49.814;7.828;2022-12-18T08:27:49;47.23;;;25.60;;
7997;SDS011;4044;49.814;7.828;2022-12-18T08:30:15;43.87;;;26.60;;
7997;SDS011;4044;49.814;7.828;2022-12-18T08:32:40;39.93;;;24.83;;
7997;SDS011;4044;49.814;7.828;2022-12-18T08:35:06;41.93;;;26.03;;
7997;SDS011;4044;49.814;7.828;2022-12-18T08:37:33;40.37;;;26.00;;
7997;SDS011;4044;49.814;7.828;2022-12-18T08:39:59;43.17;;;25.90;;
7997;SDS011;4044;49.814;7.828;2022-12-18T08:42:25;41.67;;;26.63;;
7997;SDS011;4044;49.814;7.828;2022-12-18T08:45:09;40.57;;;25.47;;
7997;SDS011;4044;49.814;7.828;2022-12-18T08:47:34;45.40;;;27.33;;
7997;SDS011;4044;49.814;7.828;2022-12-18T08:50:00;43.67;;;28.10;;
7997;SDS011;4044;49.814;7.828;2022-12-18T08:52:26;43.93;;;26.60;;
7997;SDS011;4044;49.814;7.828;2022-12-18T08:54:53;45.00;;;27.03;;
7997;SDS011;4044;49.814;7.828;2022-12-18T08:57:18;44.00;;;26.03;;
7997;SDS011;4044;49.814;7.828;2022-12-18T08:59:44;42.60;;;25.40;;
7997;SDS011;4044;49.814;7.828;2022-12-18T09:02:10;44.60;;;26.40;;
7997;SDS011;4044;49.814;7.828;2022-12-18T09:04:36;38.33;;;25.80;;
7997;SDS011;4044;49.814;7.828;2022-12-18T09:07:02;44.47;;;27.00;;
7997;SDS011;4044;49.814;7.828;2022-12-18T09:09:27;39.33;;;25.10;;
7997;SDS011;4044;49.814;7.828;2022-12-18T09:11:53;44.60;;;27.10;;
7997;SDS011;4044;49.814;7.828;2022-12-18T09:14:19;41.20;;;25.53;;
7997;SDS011;4044;49.814;7.828;2022-12-18T09:16:44;42.63;;;26.23;;
7997;SDS011;4044;49.814;7.828;2022-12-18T09:19:10;42.40;;;26.43;;
7997;SDS011;4044;49.814;7.828;2022-12-18T09:21:35;43.70;;;27.10;;
7997;SDS011;4044;49.814;7.828;2022-12-18T09:24:01;43.10;;;27.10;;
7997;SDS011;4044;49.814;7.828;2022-12-18T09:26:27;42.13;;;26.53;;
7997;SDS011;4044;49.814;7.828;2022-12-18T09:28:52;41.40;;;25.97;;
7997;SDS011;4044;49.814;7.828;2022-12-18T09:31:20;37.13;;;24.13;;
7997;SDS011;4044;49.814;7.828;2022-12-18T09:33:46;39.30;;;25.83;;
7997;SDS011;4044;49.814;7.828;2022-12-18T09:36:13;37.67;;;24.57;;
7997;SDS011;4044;49.814;7.828;2022-12-18T09:38:40;37.50;;;24.30;;
7997;SDS011;4044;49.814;7.828;2022-12-18T09:43:47;46.27;;;29.43;;
7997;SDS011;4044;49.814;7.828;2022-12-18T09:46:22;39.07;;;27.00;;
7997;SDS011;4044;49.814;7.828;2022-12-18T09:48:54;36.07;;;24.67;;
7997;SDS011;4044;49.814;7.828;2022-12-18T09:51:26;37.80;;;23.90;;
7997;SDS011;4044;49.814;7.828;2022-12-18T09:54:06;39.97;;;25.20;;
7997;SDS011;4044;49.814;7.828;2022-12-18T09:56:40;33.93;;;23.60;;
7997;SDS011;4044;49.814;7.828;2022-12-18T09:59:11;37.13;;;24.57;;
7997;SDS011;4044;49.814;7.828;2022-12-18T10:01:52;35.63;;;22.83;;
7997;SDS011;4044;49.814;7.828;2022-12-18T10:04:18;37.20;;;24.30;;
7997;SDS011;4044;49.814;7.828;2022-12-18T10:09:45;35.97;;;22.97;;
7997;SDS011;4044;49.814;7.828;2022-12-18T10:12:42;37.93;;;24.57;;
7997;SDS011;4044;49.814;7.828;2022-12-18T10:15:21;35.83;;;23.77;;
7997;SDS011;4044;49.814;7.828;2022-12-18T10:18:14;38.67;;;24.47;;
7997;SDS011;4044;49.814;7.828;2022-12-18T10:20:45;37.17;;;24.00;;
7997;SDS011;4044;49.814;7.828;2022-12-18T10:28:31;35.77;;;22.90;;
7997;SDS011;4044;49.814;7.828;2022-12-18T10:31:01;40.33;;;24.23;;
7997;SDS011;4044;49.814;7.828;2022-12-18T10:33:28;36.10;;;22.27;;
7997;SDS011;4044;49.814;7.828;2022-12-18T10:35:55;35.70;;;21.20;;
7997;SDS011;4044;49.814;7.828;2022-12-18T10:38:22;42.20;;;24.10;;
7997;SDS011;4044;49.814;7.828;2022-12-18T10:43:30;37.00;;;23.17;;
7997;SDS011;4044;49.814;7.828;2022-12-18T10:48:33;37.43;;;22.73;;
7997;SDS011;4044;49.814;7.828;2022-12-18T10:51:01;39.03;;;23.50;;
7997;SDS011;4044;49.814;7.828;2022-12-18T10:53:29;45.40;;;24.87;;
7997;SDS011;4044;49.814;7.828;2022-12-18T10:55:57;37.70;;;22.70;;
7997;SDS011;4044;49.814;7.828;2022-12-18T11:01:11;39.33;;;23.13;;
7997;SDS011;4044;49.814;7.828;2022-12-18T11:03:45;35.20;;;22.67;;
7997;SDS011;4044;49.814;7.828;2022-12-18T11:06:24;38.30;;;23.30;;
7997;SDS011;4044;49.814;7.828;2022-12-18T11:09:06;40.40;;;24.47;;
7997;SDS011;4044;49.814;7.828;2022-12-18T11:12:02;59.40;;;33.97;;
7997;SDS011;4044;49.814;7.828;2022-12-18T11:17:16;42.47;;;24.93;;
7997;SDS011;4044;49.814;7.828;2022-12-18T11:19:44;61.53;;;34.30;;
7997;SDS011;4044;49.814;7.828;2022-12-18T11:22:23;55.97;;;30.07;;
7997;SDS011;4044;49.814;7.828;2022-12-18T11:27:40;50.03;;;28.23;;
7997;SDS011;4044;49.814;7.828;2022-12-18T11:32:53;56.80;;;31.30;;
7997;SDS011;4044;49.814;7.828;2022-12-18T11:38:24;37.57;;;24.27;;
7997;SDS011;4044;49.814;7.828;2022-12-18T11:43:45;46.10;;;27.70;;
7997;SDS011;4044;49.814;7.828;2022-12-18T11:46:29;41.73;;;24.60;;
7997;SDS011;4044;49.814;7.828;2022-12-18T11:51:58;41.00;;;25.63;;
7997;SDS011;4044;49.814;7.828;2022-12-18T11:54:39;38.73;;;24.93;;
7997;SDS011;4044;49.814;7.828;2022-12-18T12:04:45;44.90;;;26.97;;
7997;SDS011;4044;49.814;7.828;2022-12-18T12:07:36;41.80;;;26.30;;
7997;SDS011;4044;49.814;7.828;2022-12-18T12:12:57;40.47;;;24.50;;
7997;SDS011;4044;49.814;7.828;2022-12-18T12:18:43;38.20;;;24.47;;
7997;SDS011;4044;49.814;7.828;2022-12-18T12:21:21;38.00;;;24.93;;
7997;SDS011;4044;49.814;7.828;2022-12-18T12:24:12;35.97;;;23.33;;
7997;SDS011;4044;49.814;7.828;2022-12-18T12:29:50;37.13;;;24.33;;
7997;SDS011;4044;49.814;7.828;2022-12-18T12:32:44;37.60;;;24.13;;
7997;SDS011;4044;49.814;7.828;2022-12-18T12:38:17;40.83;;;25.23;;
7997;SDS011;4044;49.814;7.828;2022-12-18T12:41:00;40.93;;;25.70;;
7997;SDS011;4044;49.814;7.828;2022-12-18T12:43:42;38.87;;;24.60;;
7997;SDS011;4044;49.814;7.828;2022-12-18T12:46:12;38.17;;;25.03;;
7997;SDS011;4044;49.814;7.828;2022-12-18T12:48:46;35.73;;;23.20;;
7997;SDS011;4044;49.814;7.828;2022-12-18T12:51:17;39.07;;;24.97;;
7997;SDS011;4044;49.814;7.828;2022-12-18T12:53:49;41.33;;;26.60;;
7997;SDS011;4044;49.814;7.828;2022-12-18T12:56:16;42.03;;;25.93;;
7997;SDS011;4044;49.814;7.828;2022-12-18T13:06:57;40.33;;;26.80;;
7997;SDS011;4044;49.814;7.828;2022-12-18T13:18:04;45.43;;;26.83;;
7997;SDS011;4044;49.814;7.828;2022-12-18T13:25:49;42.97;;;27.33;;
7997;SDS011;4044;49.814;7.828;2022-12-18T13:28:16;45.07;;;27.50;;
7997;SDS011;4044;49.814;7.828;2022-12-18T13:30:54;48.57;;;30.17;;
7997;SDS011;4044;49.814;7.828;2022-12-18T13:38:34;54.23;;;30.63;;
7997;SDS011;4044;49.814;7.828;2022-12-18T13:51:23;54.60;;;33.27;;
7997;SDS011;4044;49.814;7.828;2022-12-18T13:53:50;49.10;;;30.00;;
7997;SDS011;4044;49.814;7.828;2022-12-18T13:56:21;42.33;;;26.13;;
7997;SDS011;4044;49.814;7.828;2022-12-18T14:01:36;47.10;;;28.93;;
7997;SDS011;4044;49.814;7.828;2022-12-18T14:06:47;47.70;;;28.80;;
7997;SDS011;4044;49.814;7.828;2022-12-18T14:09:17;47.87;;;28.33;;
7997;SDS011;4044;49.814;7.828;2022-12-18T14:11:49;47.63;;;29.53;;
7997;SDS011;4044;49.814;7.828;2022-12-18T14:14:18;48.87;;;30.87;;
7997;SDS011;4044;49.814;7.828;2022-12-18T14:16:45;50.37;;;30.53;;
7997;SDS011;4044;49.814;7.828;2022-12-18T14:19:15;50.33;;;30.03;;
7997;SDS011;4044;49.814;7.828;2022-12-18T14:21:46;48.83;;;31.10;;
7997;SDS011;4044;49.814;7.828;2022-12-18T14:26:43;54.57;;;32.03;;
7997;SDS011;4044;49.814;7.828;2022-12-18T14:29:26;55.10;;;32.23;;
7997;SDS011;4044;49.814;7.828;2022-12-18T14:32:06;51.70;;;30.97;;
7997;SDS011;4044;49.814;7.828;2022-12-18T14:34:35;51.77;;;30.97;;
7997;SDS011;4044;49.814;7.828;2022-12-18T14:37:01;51.57;;;30.43;;
7997;SDS011;4044;49.814;7.828;2022-12-18T14:39:27;51.37;;;30.33;;
7997;SDS011;4044;49.814;7.828;2022-12-18T14:41:52;47.17;;;29.07;;
7997;SDS011;4044;49.814;7.828;2022-12-18T14:44:18;48.77;;;29.53;;
7997;SDS011;4044;49.814;7.828;2022-12-18T14:46:44;50.90;;;30.57;;
7997;SDS011;4044;49.814;7.828;2022-12-18T14:51:57;50.97;;;31.17;;
7997;SDS011;4044;49.814;7.828;2022-12-18T14:54:25;50.20;;;31.57;;
7997;SDS011;4044;49.814;7.828;2022-12-18T14:59:24;49.30;;;31.57;;
7997;SDS011;4044;49.814;7.828;2022-12-18T15:04:32;52.93;;;31.70;;
7997;SDS011;4044;49.814;7.828;2022-12-18T15:07:05;54.93;;;32.63;;
7997;SDS011;4044;49.814;7.828;2022-12-18T15:09:36;51.47;;;31.53;;
7997;SDS011;4044;49.814;7.828;2022-12-18T15:12:02;48.83;;;29.57;;
7997;SDS011;4044;49.814;7.828;2022-12-18T15:17:05;52.20;;;31.63;;
7997;SDS011;4044;49.814;7.828;2022-12-18T15:19:46;53.60;;;31.37;;
7997;SDS011;4044;49.814;7.828;2022-12-18T15:22:16;49.27;;;31.57;;
7997;SDS011;4044;49.814;7.828;2022-12-18T15:24:58;51.77;;;31.23;;
7997;SDS011;4044;49.814;7.828;2022-12-18T15:27:26;50.30;;;32.07;;
7997;SDS011;4044;49.814;7.828;2022-12-18T15:32:34;52.30;;;31.43;;
7997;SDS011;4044;49.814;7.828;2022-12-18T15:37:36;52.60;;;30.80;;
7997;SDS011;4044;49.814;7.828;2022-12-18T15:40:02;54.03;;;32.17;;
7997;SDS011;4044;49.814;7.828;2022-12-18T15:42:29;51.37;;;31.33;;
7997;SDS011;4044;49.814;7.828;2022-12-18T15:45:13;50.57;;;31.30;;
7997;SDS011;4044;49.814;7.828;2022-12-18T15:47:39;54.47;;;31.37;;
7997;SDS011;4044;49.814;7.828;2022-12-18T15:50:07;53.73;;;31.97;;
7997;SDS011;4044;49.814;7.828;2022-12-18T15:52:35;50.00;;;30.07;;
7997;SDS011;4044;49.814;7.828;2022-12-18T15:55:13;51.63;;;31.37;;
7997;SDS011;4044;49.814;7.828;2022-12-18T15:57:59;53.33;;;32.37;;
7997;SDS011;4044;49.814;7.828;2022-12-18T16:00:24;51.20;;;31.73;;
7997;SDS011;4044;49.814;7.828;2022-12-18T16:02:50;54.73;;;32.20;;
7997;SDS011;4044;49.814;7.828;2022-12-18T16:05:17;53.13;;;31.20;;
7997;SDS011;4044;49.814;7.828;2022-12-18T16:07:44;49.80;;;30.33;;
7997;SDS011;4044;49.814;7.828;2022-12-18T16:10:10;57.07;;;33.17;;
7997;SDS011;4044;49.814;7.828;2022-12-18T16:12:35;61.00;;;35.23;;
7997;SDS011;4044;49.814;7.828;2022-12-18T16:15:02;56.50;;;33.60;;
7997;SDS011;4044;49.814;7.828;2022-12-18T16:17:29;54.87;;;32.60;;
7997;SDS011;4044;49.814;7.828;2022-12-18T16:19:54;60.07;;;34.13;;
7997;SDS011;4044;49.814;7.828;2022-12-18T16:22:21;55.50;;;33.87;;
7997;SDS011;4044;49.814;7.828;2022-12-18T16:24:49;61.27;;;34.13;;
7997;SDS011;4044;49.814;7.828;2022-12-18T16:27:16;55.70;;;32.73;;
7997;SDS011;4044;49.814;7.828;2022-12-18T16:29:43;47.87;;;30.63;;
7997;SDS011;4044;49.814;7.828;2022-12-18T16:32:09;50.77;;;30.67;;
7997;SDS011;4044;49.814;7.828;2022-12-18T16:34:38;51.70;;;32.13;;
7997;SDS011;4044;49.814;7.828;2022-12-18T16:37:05;48.87;;;30.23;;
7997;SDS011;4044;49.814;7.828;2022-12-18T16:39:32;51.20;;;31.67;;
7997;SDS011;4044;49.814;7.828;2022-12-18T16:41:59;55.47;;;32.00;;
7997;SDS011;4044;49.814;7.828;2022-12-18T16:44:25;50.10;;;29.87;;
7997;SDS011;4044;49.814;7.828;2022-12-18T16:46:51;45.87;;;29.93;;
7997;SDS011;4044;49.814;7.828;2022-12-18T16:49:18;54.17;;;32.53;;
7997;SDS011;4044;49.814;7.828;2022-12-18T16:51:45;53.63;;;31.93;;
7997;SDS011;4044;49.814;7.828;2022-12-18T16:54:10;52.53;;;31.80;;
7997;SDS011;4044;49.814;7.828;2022-12-18T16:56:36;54.87;;;34.27;;
7997;SDS011;4044;49.814;7.828;2022-12-18T16:59:02;48.57;;;30.30;;
7997;SDS011;4044;49.814;7.828;2022-12-18T17:01:29;49.53;;;30.33;;
7997;SDS011;4044;49.814;7.828;2022-12-18T17:03:56;53.17;;;30.43;;
7997;SDS011;4044;49.814;7.828;2022-12-18T17:06:24;51.40;;;31.27;;
7997;SDS011;4044;49.814;7.828;2022-12-18T17:09:01;53.50;;;31.97;;
7997;SDS011;4044;49.814;7.828;2022-12-18T17:11:29;55.00;;;31.23;;
7997;SDS011;4044;49.814;7.828;2022-12-18T17:13:56;49.90;;;30.73;;
7997;SDS011;4044;49.814;7.828;2022-12-18T17:16:21;50.90;;;29.57;;
7997;SDS011;4044;49.814;7.828;2022-12-18T17:18:47;51.83;;;30.13;;
7997;SDS011;4044;49.814;7.828;2022-12-18T17:21:13;68.23;;;39.30;;
7997;SDS011;4044;49.814;7.828;2022-12-18T17:23:40;56.67;;;36.00;;
7997;SDS011;4044;49.814;7.828;2022-12-18T17:26:10;52.97;;;31.10;;
7997;SDS011;4044;49.814;7.828;2022-12-18T17:28:37;55.13;;;34.10;;